Time;durP1;ratioP1;P1;durP2;ratioP2;P2;SDS_P1;SDS_P2;PMS_P1;PMS_P2;Temp;Humidity;BMP_temperature;BMP_pressure;BME280_temperature;BME280_humidity;BME280_pressure;Samples;Min_cycle;Max_cycle;Signal;HPM_P1;HPM_P2
2022/07/27 00:02:14;;;;;;;2.33;1.12;;;16.70;57.20;;;;;;609990;234;26648;-70
2022/07/27 00:04:42;;;;;;;2.28;1.40;;;16.70;56.20;;;;;;610030;236;26655;-70
2022/07/27 00:07:09;;;;;;;2.42;1.00;;;16.70;56.90;;;;;;610034;236;26854;-70
2022/07/27 00:09:36;;;;;;;3.15;1.35;;;16.80;57.40;;;;;;609995;236;26668;-70
2022/07/27 00:12:04;;;;;;;2.28;1.08;;;16.70;57.00;;;;;;610017;236;26879;-70
2022/07/27 00:14:32;;;;;;;1.87;1.10;;;16.70;56.90;;;;;;610081;236;26640;-70
2022/07/27 00:16:59;;;;;;;3.00;1.20;;;16.70;57.30;;;;;;610288;233;27348;-70
2022/07/27 00:19:27;;;;;;;2.35;1.20;;;16.60;56.90;;;;;;611655;235;26622;-70
2022/07/27 00:21:57;;;;;;;2.83;1.08;;;16.60;57.10;;;;;;611175;235;26568;-70
2022/07/27 00:24:23;;;;;;;1.65;0.93;;;16.50;56.80;;;;;;610791;235;26623;-70
2022/07/27 00:26:51;;;;;;;2.05;1.00;;;16.50;57.00;;;;;;610773;235;26576;-70
2022/07/27 00:29:18;;;;;;;3.15;1.20;;;16.50;56.60;;;;;;610657;235;26581;-70
2022/07/27 00:31:45;;;;;;;2.75;1.30;;;16.50;56.50;;;;;;610602;235;26645;-70
2022/07/27 00:34:12;;;;;;;2.20;1.10;;;16.40;56.70;;;;;;610564;235;26838;-70
2022/07/27 00:36:39;;;;;;;2.05;1.20;;;16.30;56.80;;;;;;610390;235;26575;-70
2022/07/27 00:39:07;;;;;;;2.40;1.17;;;16.30;57.00;;;;;;610326;236;26856;-70
2022/07/27 00:41:34;;;;;;;2.22;0.95;;;16.10;57.00;;;;;;610295;235;26645;-70
2022/07/27 00:44:04;;;;;;;2.42;1.30;;;16.00;57.20;;;;;;610280;236;26882;-70
2022/07/27 00:46:28;;;;;;;3.20;0.85;;;15.90;57.40;;;;;;610098;236;26628;-70
2022/07/27 00:48:55;;;;;;;3.28;1.15;;;15.90;57.60;;;;;;610326;236;26875;-70
2022/07/27 00:51:23;;;;;;;1.95;1.12;;;15.80;57.90;;;;;;610286;236;26650;-71
2022/07/27 00:53:50;;;;;;;1.37;0.80;;;15.70;58.10;;;;;;610395;236;26908;-70
2022/07/27 00:56:17;;;;;;;3.60;1.23;;;15.60;58.20;;;;;;610424;236;26601;-70
2022/07/27 00:58:44;;;;;;;1.37;0.80;;;15.50;58.40;;;;;;610412;236;26605;-70
2022/07/27 01:01:12;;;;;;;1.27;1.10;;;15.50;58.50;;;;;;610233;236;26590;-69
2022/07/27 01:03:40;;;;;;;1.92;1.23;;;15.50;58.50;;;;;;610388;236;26672;-70
2022/07/27 01:06:07;;;;;;;3.90;1.25;;;15.40;58.60;;;;;;610366;236;26839;-70
2022/07/27 01:08:34;;;;;;;1.62;1.00;;;15.30;58.70;;;;;;610340;236;26601;-70
2022/07/27 01:11:02;;;;;;;1.95;1.30;;;15.30;59.00;;;;;;609911;236;27201;-70
2022/07/27 01:13:30;;;;;;;2.97;1.35;;;15.20;59.50;;;;;;610008;236;26667;-70
2022/07/27 01:15:58;;;;;;;2.78;1.10;;;15.20;59.50;;;;;;609989;236;26640;-70
2022/07/27 01:18:31;;;;;;;2.10;1.12;;;15.20;59.30;;;;;;609958;236;26865;-71
2022/07/27 01:20:58;;;;;;;2.25;1.12;;;15.10;59.60;;;;;;609925;236;27170;-70
2022/07/27 01:23:25;;;;;;;2.92;1.15;;;15.10;59.80;;;;;;609841;235;26667;-70
2022/07/27 01:25:52;;;;;;;2.83;0.98;;;15.00;60.30;;;;;;609989;236;26861;-70
2022/07/27 01:28:19;;;;;;;2.90;0.95;;;15.00;60.90;;;;;;609974;236;26643;-70
2022/07/27 01:30:47;;;;;;;2.08;1.00;;;15.00;61.20;;;;;;611559;234;27389;-70
2022/07/27 01:33:14;;;;;;;3.40;0.95;;;15.00;61.60;;;;;;610987;235;26604;-70
2022/07/27 01:35:41;;;;;;;3.05;1.20;;;14.90;62.00;;;;;;610791;235;26625;-70
2022/07/27 01:38:09;;;;;;;1.23;0.90;;;14.80;62.90;;;;;;610666;231;26591;-70
2022/07/27 01:40:38;;;;;;;2.00;1.00;;;14.80;62.90;;;;;;610473;235;26583;-70
2022/07/27 01:43:05;;;;;;;2.92;0.90;;;14.70;63.20;;;;;;610425;235;26605;-71
2022/07/27 01:45:33;;;;;;;2.55;1.10;;;14.70;64.50;;;;;;610576;235;26589;-70
2022/07/27 01:48:01;;;;;;;1.30;0.88;;;14.60;64.30;;;;;;610319;235;26639;-70
2022/07/27 01:50:29;;;;;;;1.80;1.00;;;14.60;64.80;;;;;;610308;236;26646;-70
2022/07/27 01:52:56;;;;;;;1.60;1.00;;;14.60;64.80;;;;;;610292;236;26651;-70
2022/07/27 01:55:23;;;;;;;1.75;0.90;;;14.50;65.10;;;;;;610273;236;27270;-70
2022/07/27 01:57:51;;;;;;;1.73;0.93;;;14.50;65.00;;;;;;610266;236;26587;-70
2022/07/27 02:00:18;;;;;;;0.98;0.80;;;14.50;65.60;;;;;;610264;236;26870;-69
2022/07/27 02:02:46;;;;;;;2.35;1.00;;;14.40;66.20;;;;;;610226;236;26650;-69
2022/07/27 02:05:14;;;;;;;1.27;0.70;;;14.30;66.70;;;;;;610106;236;26606;-69
2022/07/27 02:07:42;;;;;;;2.90;1.30;;;14.30;67.00;;;;;;610015;236;26589;-70
2022/07/27 02:10:10;;;;;;;1.40;1.00;;;14.20;67.30;;;;;;610012;236;26650;-70
2022/07/27 02:12:38;;;;;;;2.78;1.15;;;14.20;67.70;;;;;;609922;235;26597;-70
2022/07/27 02:15:13;;;;;;;2.45;1.00;;;14.20;68.00;;;;;;609988;236;26591;-70
2022/07/27 02:17:40;;;;;;;1.17;1.05;;;14.20;68.00;;;;;;609971;236;26846;-69
2022/07/27 02:20:09;;;;;;;1.60;1.00;;;14.20;68.70;;;;;;609868;236;26626;-69
2022/07/27 02:22:36;;;;;;;3.47;1.10;;;14.10;68.50;;;;;;609954;236;26664;-70
2022/07/27 02:25:05;;;;;;;1.70;0.95;;;14.10;69.20;;;;;;609897;236;26879;-69
2022/07/27 02:27:33;;;;;;;1.65;0.80;;;14.10;70.30;;;;;;610003;236;26853;-71
2022/07/27 02:30:00;;;;;;;2.60;0.93;;;14.00;70.20;;;;;;609995;236;26853;-70
2022/07/27 02:32:27;;;;;;;1.33;0.90;;;14.00;70.50;;;;;;609960;235;26693;-69
2022/07/27 02:34:54;;;;;;;2.15;1.05;;;14.00;71.10;;;;;;610056;236;27389;-69
2022/07/27 02:37:23;;;;;;;2.85;1.00;;;14.00;71.50;;;;;;609965;236;26609;-70
2022/07/27 02:39:51;;;;;;;2.62;1.20;;;13.90;72.20;;;;;;609945;231;26645;-70
2022/07/27 02:42:18;;;;;;;1.85;0.95;;;13.90;72.40;;;;;;611528;233;26657;-70
2022/07/27 02:44:46;;;;;;;2.25;1.00;;;13.80;72.90;;;;;;611097;235;26587;-70
2022/07/27 02:47:13;;;;;;;1.35;0.90;;;13.80;72.90;;;;;;610841;235;26610;-70
2022/07/27 02:49:40;;;;;;;2.12;0.88;;;13.80;73.40;;;;;;610802;235;26626;-70
2022/07/27 02:52:08;;;;;;;1.98;1.02;;;13.80;73.70;;;;;;610520;235;26806;-69
2022/07/27 02:54:35;;;;;;;2.08;1.17;;;13.80;74.20;;;;;;610629;235;26587;-69
2022/07/27 02:57:03;;;;;;;0.75;0.70;;;13.80;74.30;;;;;;610567;235;26822;-69
2022/07/27 02:59:29;;;;;;;2.20;0.80;;;13.70;75.00;;;;;;610324;235;26802;-69
2022/07/27 03:01:56;;;;;;;0.90;0.88;;;13.70;75.50;;;;;;610270;234;26593;-69
2022/07/27 03:04:24;;;;;;;0.80;0.70;;;13.70;76.00;;;;;;610283;236;26853;-69
2022/07/27 03:06:51;;;;;;;1.25;0.70;;;13.70;76.30;;;;;;610164;235;26645;-69
2022/07/27 03:09:18;;;;;;;1.45;0.82;;;13.70;77.00;;;;;;610312;236;26627;-69
2022/07/27 03:11:46;;;;;;;1.85;0.77;;;13.60;77.60;;;;;;610304;235;26681;-69
2022/07/27 03:14:14;;;;;;;2.30;1.17;;;13.50;78.00;;;;;;610303;236;26663;-69
2022/07/27 03:16:42;;;;;;;1.95;0.80;;;13.50;78.20;;;;;;610211;236;26580;-69
2022/07/27 03:19:09;;;;;;;1.17;0.70;;;13.50;78.20;;;;;;610021;236;26663;-69
2022/07/27 03:21:38;;;;;;;2.92;1.00;;;13.50;79.20;;;;;;609989;236;26609;-69
2022/07/27 03:24:06;;;;;;;0.88;0.70;;;13.50;79.10;;;;;;609943;236;26669;-69
2022/07/27 03:26:33;;;;;;;1.70;0.95;;;13.50;79.40;;;;;;610112;236;26641;-69
2022/07/27 03:29:00;;;;;;;1.95;1.08;;;13.50;79.50;;;;;;610061;236;26873;-68
2022/07/27 03:31:27;;;;;;;1.95;0.82;;;13.60;79.90;;;;;;610061;236;26595;-68
2022/07/27 03:33:54;;;;;;;0.98;0.75;;;13.60;79.40;;;;;;610016;236;26881;-68
2022/07/27 03:36:22;;;;;;;3.08;0.90;;;13.60;79.30;;;;;;610049;236;26636;-68
2022/07/27 03:38:49;;;;;;;1.85;0.80;;;13.60;79.50;;;;;;610034;236;26867;-69
2022/07/27 03:41:16;;;;;;;1.77;1.10;;;13.60;79.80;;;;;;609947;236;26592;-69
2022/07/27 03:43:43;;;;;;;1.27;0.82;;;13.60;80.00;;;;;;609990;236;26928;-69
2022/07/27 03:46:11;;;;;;;1.80;0.90;;;13.70;80.40;;;;;;610043;236;26635;-69
2022/07/27 03:48:39;;;;;;;1.55;1.10;;;13.70;80.30;;;;;;609996;236;26667;-69
2022/07/27 03:51:07;;;;;;;3.67;1.15;;;13.70;80.40;;;;;;610023;236;26675;-69
2022/07/27 03:53:35;;;;;;;2.55;1.15;;;13.80;80.40;;;;;;611551;233;26641;-69
2022/07/27 03:56:02;;;;;;;3.00;0.85;;;13.80;80.30;;;;;;611200;235;26596;-69
2022/07/27 03:58:30;;;;;;;1.65;1.15;;;13.80;79.70;;;;;;610903;235;26640;-69
2022/07/27 04:00:57;;;;;;;1.80;1.12;;;13.80;79.60;;;;;;610784;235;26918;-69
2022/07/27 04:03:25;;;;;;;1.70;0.90;;;13.70;80.60;;;;;;610597;235;26608;-69
2022/07/27 04:05:52;;;;;;;1.37;0.77;;;13.60;80.60;;;;;;610543;235;26938;-70
2022/07/27 04:08:20;;;;;;;2.40;1.00;;;13.60;81.10;;;;;;610611;235;26581;-69
2022/07/27 04:10:46;;;;;;;1.87;0.85;;;13.50;80.90;;;;;;610415;235;26820;-69
2022/07/27 04:13:13;;;;;;;2.20;1.00;;;13.50;81.90;;;;;;610159;236;26627;-68
2022/07/27 04:15:41;;;;;;;1.50;1.00;;;13.50;81.90;;;;;;610293;236;26871;-68
2022/07/27 04:18:08;;;;;;;3.72;0.95;;;13.50;81.40;;;;;;610325;231;26657;-68
2022/07/27 04:20:35;;;;;;;2.80;0.82;;;13.50;81.20;;;;;;610356;236;26948;-68
2022/07/27 04:23:03;;;;;;;3.83;1.20;;;13.50;82.00;;;;;;610284;236;26578;-68
2022/07/27 04:25:30;;;;;;;2.28;0.88;;;13.40;81.90;;;;;;610257;236;26628;-68
2022/07/27 04:27:57;;;;;;;1.15;0.98;;;13.50;82.50;;;;;;610213;236;26959;-68
2022/07/27 04:30:25;;;;;;;1.85;0.90;;;13.40;82.20;;;;;;610039;236;26621;-68
2022/07/27 04:32:52;;;;;;;1.48;0.90;;;13.50;82.40;;;;;;609990;236;26870;-68
2022/07/27 04:35:19;;;;;;;2.62;0.95;;;13.50;81.50;;;;;;610024;236;26644;-68
2022/07/27 04:37:46;;;;;;;2.90;0.70;;;13.50;81.40;;;;;;609996;236;26875;-68
2022/07/27 04:40:14;;;;;;;2.37;1.10;;;13.60;81.10;;;;;;609996;236;26640;-69
2022/07/27 04:42:42;;;;;;;2.05;0.95;;;13.60;80.70;;;;;;609969;232;26661;-68
2022/07/27 04:45:10;;;;;;;1.33;0.70;;;13.60;80.40;;;;;;609988;236;26659;-69
2022/07/27 04:47:37;;;;;;;1.92;0.80;;;13.50;80.20;;;;;;610022;236;26663;-68
2022/07/27 04:50:06;;;;;;;1.58;0.82;;;13.70;80.70;;;;;;610012;236;26655;-68
2022/07/27 04:52:33;;;;;;;4.68;1.17;;;13.60;79.70;;;;;;610054;232;26652;-68
2022/07/27 04:55:00;;;;;;;2.75;1.02;;;13.70;80.10;;;;;;609895;236;26956;-68
2022/07/27 04:57:27;;;;;;;1.80;0.90;;;13.80;79.20;;;;;;609994;236;26593;-68
2022/07/27 04:59:54;;;;;;;2.60;0.93;;;13.80;79.20;;;;;;610055;236;26888;-68
2022/07/27 05:02:22;;;;;;;1.08;0.90;;;13.90;78.80;;;;;;609941;235;26653;-68
2022/07/27 05:04:49;;;;;;;2.42;1.30;;;14.10;78.10;;;;;;611326;233;26851;-68
2022/07/27 05:07:16;;;;;;;1.87;0.88;;;14.20;77.50;;;;;;611231;235;26561;-68
2022/07/27 05:09:43;;;;;;;3.12;0.90;;;14.20;77.00;;;;;;610913;235;26665;-68
2022/07/27 05:12:11;;;;;;;0.75;0.75;;;14.40;76.50;;;;;;610851;235;26719;-68
2022/07/27 05:14:39;;;;;;;3.33;0.95;;;14.50;76.30;;;;;;610626;235;26565;-68
2022/07/27 05:17:07;;;;;;;1.95;1.10;;;14.60;76.10;;;;;;610539;235;26565;-68
2022/07/27 05:19:35;;;;;;;2.03;1.12;;;14.60;76.20;;;;;;610569;235;26588;-69
2022/07/27 05:22:02;;;;;;;2.87;1.00;;;14.60;76.10;;;;;;610384;235;26587;-71
2022/07/27 05:24:29;;;;;;;0.90;0.88;;;14.70;76.20;;;;;;610274;236;26620;-70
2022/07/27 05:26:57;;;;;;;3.30;1.05;;;14.60;75.50;;;;;;610270;236;26840;-71
2022/07/27 05:29:24;;;;;;;1.30;0.90;;;14.50;76.20;;;;;;610216;236;26805;-70
2022/07/27 05:31:51;;;;;;;2.65;1.00;;;14.50;76.50;;;;;;606823;235;26945;-70
2022/07/27 05:34:18;;;;;;;3.22;1.15;;;14.50;77.20;;;;;;605463;235;26599;-69
2022/07/27 05:36:45;;;;;;;2.10;1.00;;;14.40;76.80;;;;;;606202;235;26844;-69
2022/07/27 05:39:13;;;;;;;2.70;0.98;;;14.40;77.30;;;;;;603985;236;26570;-69
2022/07/27 05:41:40;;;;;;;4.70;1.40;;;14.50;77.90;;;;;;606592;235;26829;-70
2022/07/27 05:44:07;;;;;;;3.60;0.82;;;14.50;77.60;;;;;;604764;236;26617;-69
2022/07/27 05:46:35;;;;;;;2.95;1.15;;;14.50;78.50;;;;;;606421;235;26600;-70
2022/07/27 05:49:02;;;;;;;3.58;1.10;;;14.80;78.80;;;;;;607221;235;26646;-69
2022/07/27 05:51:30;;;;;;;3.22;1.12;;;14.80;79.40;;;;;;603561;234;26561;-69
2022/07/27 05:53:57;;;;;;;2.65;1.17;;;14.90;78.80;;;;;;602020;238;26599;-69
2022/07/27 05:56:25;;;;;;;3.40;1.10;;;15.00;77.40;;;;;;602014;239;26561;-69
2022/07/27 05:58:52;;;;;;;4.43;1.17;;;15.00;77.40;;;;;;602034;239;26557;-69
2022/07/27 06:01:19;;;;;;;3.03;1.15;;;15.10;77.50;;;;;;601953;239;26553;-69
2022/07/27 06:03:46;;;;;;;1.25;1.00;;;15.30;76.80;;;;;;604619;236;26593;-69
2022/07/27 06:08:46;;;;;;;3.47;1.20;;;15.40;76.30;;;;;;605356;236;26817;-69
2022/07/27 06:11:13;;;;;;;3.22;0.90;;;15.50;76.40;;;;;;605009;236;26589;-69
2022/07/27 06:13:40;;;;;;;3.10;0.90;;;15.60;76.10;;;;;;604744;232;26852;-69
2022/07/27 06:16:08;;;;;;;2.15;0.98;;;15.50;75.80;;;;;;607352;234;26536;-68
2022/07/27 06:18:35;;;;;;;2.05;1.10;;;15.70;75.60;;;;;;611267;235;26597;-68
2022/07/27 06:21:03;;;;;;;4.03;0.98;;;16.00;74.80;;;;;;606148;234;26570;-69
2022/07/27 06:23:31;;;;;;;2.25;0.90;;;15.90;74.90;;;;;;604670;234;26610;-70
2022/07/27 06:25:59;;;;;;;5.87;1.33;;;16.00;74.30;;;;;;603975;235;26643;-69
2022/07/27 06:28:27;;;;;;;2.75;1.05;;;15.70;72.50;;;;;;603384;235;26593;-69
2022/07/27 06:30:54;;;;;;;2.75;1.25;;;15.70;72.50;;;;;;604537;238;26606;-69
2022/07/27 06:33:29;;;;;;;2.25;1.05;;;15.80;72.90;;;;;;604128;235;26653;-69
2022/07/27 06:35:56;;;;;;;3.20;1.20;;;16.10;71.50;;;;;;603141;238;26566;-69
2022/07/27 06:38:24;;;;;;;1.05;0.70;;;16.10;71.20;;;;;;606089;236;26606;-69
2022/07/27 06:40:52;;;;;;;1.90;0.93;;;15.90;70.50;;;;;;612298;235;26616;-69
2022/07/27 06:43:21;;;;;;;2.55;1.00;;;15.80;71.20;;;;;;607117;234;26606;-69
2022/07/27 06:45:49;;;;;;;1.75;1.00;;;15.90;71.20;;;;;;606515;236;26598;-69
2022/07/27 06:48:17;;;;;;;3.58;1.15;;;15.90;71.10;;;;;;603874;235;26577;-70
2022/07/27 06:50:44;;;;;;;2.35;1.15;;;15.90;70.70;;;;;;604786;238;26602;-70
2022/07/27 06:53:12;;;;;;;6.87;1.20;;;16.00;70.20;;;;;;603749;237;26608;-69
2022/07/27 06:55:40;;;;;;;4.87;1.20;;;16.10;70.00;;;;;;601639;238;26827;-69
2022/07/27 06:58:06;;;;;;;3.12;1.05;;;16.30;69.80;;;;;;607340;236;26648;-69
2022/07/27 07:00:34;;;;;;;2.33;0.90;;;16.50;69.30;;;;;;609590;236;26833;-69
2022/07/27 07:03:02;;;;;;;1.92;1.15;;;16.50;69.30;;;;;;602413;233;26822;-69
2022/07/27 07:05:29;;;;;;;2.53;1.20;;;16.60;69.00;;;;;;603388;237;26602;-68
2022/07/27 07:07:56;;;;;;;2.22;1.00;;;16.70;68.10;;;;;;603554;238;27262;-68
2022/07/27 07:10:23;;;;;;;4.93;1.10;;;16.80;66.90;;;;;;604748;237;26551;-68
2022/07/27 07:12:54;;;;;;;2.03;0.88;;;17.00;65.30;;;;;;604132;237;27256;-67
2022/07/27 07:15:18;;;;;;;1.80;0.90;;;17.00;65.30;;;;;;604850;236;26833;-68
2022/07/27 07:17:46;;;;;;;3.60;0.80;;;17.20;65.30;;;;;;605420;236;26588;-67
2022/07/27 07:20:13;;;;;;;1.12;0.70;;;17.30;63.60;;;;;;603916;237;26593;-68
2022/07/27 07:22:40;;;;;;;1.27;0.90;;;17.40;63.60;;;;;;601847;237;26620;-68
2022/07/27 07:25:08;;;;;;;4.25;0.80;;;17.50;63.50;;;;;;602501;238;26833;-68
2022/07/27 07:27:35;;;;;;;2.45;0.88;;;17.50;62.10;;;;;;604677;235;26584;-68
2022/07/27 07:30:02;;;;;;;3.45;1.00;;;17.60;61.90;;;;;;605304;237;26605;-68
2022/07/27 07:32:30;;;;;;;2.12;0.90;;;17.80;60.60;;;;;;610273;235;26639;-68
2022/07/27 07:34:58;;;;;;;3.60;1.02;;;17.80;60.00;;;;;;603556;237;26567;-69
2022/07/27 07:37:25;;;;;;;2.20;0.90;;;17.90;59.60;;;;;;607515;235;26621;-69
2022/07/27 07:39:53;;;;;;;2.62;1.00;;;17.90;59.80;;;;;;605579;235;26585;-68
2022/07/27 07:42:21;;;;;;;1.33;0.80;;;18.30;59.20;;;;;;608774;234;26608;-68
2022/07/27 07:44:49;;;;;;;1.10;0.88;;;18.40;58.10;;;;;;604818;235;26640;-69
2022/07/27 07:47:16;;;;;;;0.65;0.65;;;18.40;58.10;;;;;;603036;237;26605;-68
2022/07/27 07:49:43;;;;;;;2.47;0.90;;;18.30;57.30;;;;;;607818;236;26635;-69
2022/07/27 07:52:11;;;;;;;2.45;0.82;;;18.50;55.60;;;;;;604150;236;26830;-68
2022/07/27 07:54:37;;;;;;;0.68;0.68;;;18.50;57.10;;;;;;601868;239;26585;-68
2022/07/27 07:57:05;;;;;;;0.52;0.52;;;18.60;56.00;;;;;;601932;239;26933;-68
2022/07/27 07:59:33;;;;;;;1.50;0.65;;;18.70;55.90;;;;;;601956;237;26603;-66
2022/07/27 08:02:02;;;;;;;2.05;0.68;;;18.80;55.20;;;;;;603933;238;26555;-68
2022/07/27 08:04:28;;;;;;;0.60;0.60;;;18.80;55.60;;;;;;611135;235;26575;-68
2022/07/27 08:06:56;;;;;;;1.20;0.73;;;19.00;55.60;;;;;;608302;236;26633;-69
2022/07/27 08:09:27;;;;;;;0.70;0.70;;;18.90;55.50;;;;;;601607;239;26592;-68
2022/07/27 08:11:52;;;;;;;0.68;0.62;;;18.70;55.30;;;;;;603253;238;26571;-68
2022/07/27 08:14:20;;;;;;;1.25;0.93;;;18.70;55.30;;;;;;608995;235;26580;-67
2022/07/27 08:16:47;;;;;;;2.17;0.90;;;18.70;55.30;;;;;;604423;235;27262;-68
2022/07/27 08:19:14;;;;;;;0.85;0.55;;;18.70;53.60;;;;;;602693;238;26591;-68
2022/07/27 08:21:41;;;;;;;1.33;0.70;;;18.40;53.30;;;;;;603040;238;26953;-68
2022/07/27 08:24:09;;;;;;;1.33;0.68;;;18.50;53.60;;;;;;604755;235;26610;-68
2022/07/27 08:26:36;;;;;;;1.20;0.73;;;18.40;53.90;;;;;;604444;238;26937;-68
2022/07/27 08:29:03;;;;;;;1.70;0.82;;;18.30;53.50;;;;;;601648;238;26594;-67
2022/07/27 08:31:30;;;;;;;0.80;0.70;;;18.50;53.70;;;;;;606415;235;26873;-68
2022/07/27 08:33:57;;;;;;;1.37;0.80;;;18.50;54.30;;;;;;610927;234;26624;-68
2022/07/27 08:36:25;;;;;;;0.60;0.60;;;18.60;53.90;;;;;;603137;236;26879;-68
2022/07/27 08:38:52;;;;;;;0.82;0.60;;;18.50;53.10;;;;;;611284;232;26643;-67
2022/07/27 08:41:19;;;;;;;1.00;0.75;;;18.60;53.30;;;;;;604081;237;26823;-68
2022/07/27 08:43:47;;;;;;;1.37;0.70;;;19.10;53.50;;;;;;605562;237;26671;-68
2022/07/27 08:46:15;;;;;;;0.50;0.50;;;19.00;52.90;;;;;;603268;237;26582;-68
2022/07/27 08:48:42;;;;;;;1.85;0.60;;;19.00;52.90;;;;;;605032;237;26583;-68
2022/07/27 08:51:09;;;;;;;1.50;0.70;;;19.10;52.40;;;;;;604390;237;26644;-69
2022/07/27 08:53:37;;;;;;;1.08;0.57;;;18.60;52.40;;;;;;603700;234;26653;-69
2022/07/27 08:56:05;;;;;;;0.70;0.52;;;18.80;52.90;;;;;;603149;238;26627;-69
2022/07/27 08:58:33;;;;;;;0.90;0.75;;;19.10;52.40;;;;;;602062;238;26574;-69
2022/07/27 09:01:01;;;;;;;0.98;0.80;;;19.10;52.10;;;;;;604220;237;26597;-69
2022/07/27 09:03:28;;;;;;;1.33;0.70;;;19.10;52.00;;;;;;603248;237;26935;-69
2022/07/27 09:05:57;;;;;;;1.10;0.50;;;19.10;51.90;;;;;;603099;237;26555;-69
2022/07/27 09:08:24;;;;;;;1.25;0.80;;;18.90;52.90;;;;;;608630;236;26623;-69
2022/07/27 09:10:53;;;;;;;1.75;0.77;;;19.00;52.40;;;;;;610839;235;26658;-69
2022/07/27 09:13:20;;;;;;;2.00;0.80;;;19.00;52.50;;;;;;603006;238;26614;-69
2022/07/27 09:15:49;;;;;;;1.08;0.60;;;19.30;52.40;;;;;;608243;236;26834;-70
2022/07/27 09:18:21;;;;;;;6.50;1.37;;;19.80;50.80;;;;;;609962;236;27021;-70
2022/07/27 09:20:47;;;;;;;2.03;0.80;;;19.90;51.00;;;;;;600942;239;26835;-69
2022/07/27 09:23:15;;;;;;;1.40;0.65;;;19.30;51.50;;;;;;599747;238;26602;-69
2022/07/27 09:25:43;;;;;;;4.25;1.00;;;19.30;51.80;;;;;;602027;238;26587;-69
2022/07/27 09:28:11;;;;;;;0.73;0.73;;;19.50;51.90;;;;;;602465;237;26597;-69
2022/07/27 09:30:41;;;;;;;0.57;0.50;;;19.50;51.90;;;;;;604162;236;26596;-69
2022/07/27 09:33:08;;;;;;;1.15;0.68;;;19.60;51.70;;;;;;603281;235;26611;-69
2022/07/27 09:35:35;;;;;;;1.30;0.80;;;19.60;51.90;;;;;;608241;235;27285;-69
2022/07/27 09:38:14;;;;;;;1.75;0.85;;;19.90;52.00;;;;;;603963;235;26582;-70
2022/07/27 09:40:41;;;;;;;1.73;0.77;;;20.00;51.20;;;;;;605883;234;26772;-69
2022/07/27 09:43:09;;;;;;;1.48;0.85;;;20.00;50.20;;;;;;605547;235;26599;-69
2022/07/27 09:45:37;;;;;;;1.10;0.80;;;19.90;49.80;;;;;;603695;236;26577;-69
2022/07/27 09:48:05;;;;;;;4.70;1.12;;;19.90;49.30;;;;;;604598;236;26606;-70
2022/07/27 09:50:32;;;;;;;0.75;0.73;;;19.70;49.00;;;;;;606363;233;26629;-69
2022/07/27 09:53:11;;;;;;;3.70;1.17;;;20.00;49.30;;;;;;605516;235;26665;-69
2022/07/27 09:55:40;;;;;;;2.42;0.90;;;20.30;48.80;;;;;;605336;234;26860;-69
2022/07/27 09:58:06;;;;;;;1.12;0.70;;;20.20;48.50;;;;;;604953;237;26603;-69
2022/07/27 10:00:33;;;;;;;1.25;0.70;;;20.40;48.30;;;;;;606903;235;26837;-69
2022/07/27 10:03:00;;;;;;;2.30;0.80;;;20.40;48.00;;;;;;612105;235;26663;-69
2022/07/27 10:05:27;;;;;;;2.33;1.15;;;20.70;47.80;;;;;;610560;235;26830;-69
2022/07/27 10:07:55;;;;;;;2.25;0.70;;;21.00;47.60;;;;;;606406;235;26629;-69
2022/07/27 10:10:22;;;;;;;51.70;9.32;;;20.50;47.30;;;;;;602416;237;27226;-70
2022/07/27 10:12:51;;;;;;;92.07;19.05;;;20.40;47.70;;;;;;604817;238;26609;-69
2022/07/27 10:15:17;;;;;;;120.25;23.42;;;20.90;47.30;;;;;;604798;238;27250;-71
2022/07/27 10:17:44;;;;;;;131.43;28.15;;;20.80;47.20;;;;;;604963;238;26559;-71
2022/07/27 10:20:11;;;;;;;123.15;25.65;;;20.70;47.50;;;;;;602467;238;26593;-69
2022/07/27 10:22:59;;;;;;;77.78;18.48;;;20.90;46.80;;;;;;604229;235;26625;-69
2022/07/27 10:25:26;;;;;;;63.87;13.85;;;20.90;46.80;;;;;;606690;236;26557;-68
2022/07/27 10:28:06;;;;;;;28.02;6.40;;;20.90;47.20;;;;;;603559;236;26834;-69
2022/07/27 10:30:34;;;;;;;37.72;10.07;;;20.80;47.60;;;;;;603951;238;26614;-69
2022/07/27 10:33:09;;;;;;;34.92;9.55;;;21.50;47.40;;;;;;602742;238;26599;-68
2022/07/27 10:35:37;;;;;;;24.27;6.35;;;21.50;47.30;;;;;;602694;238;26807;-68
2022/07/27 10:38:06;;;;;;;28.80;7.12;;;20.80;47.60;;;;;;610678;235;26606;-68
2022/07/27 10:40:33;;;;;;;18.33;3.95;;;20.70;47.50;;;;;;602248;235;26597;-68
2022/07/27 10:43:07;;;;;;;7.57;2.30;;;21.20;47.70;;;;;;603549;235;26623;-67
2022/07/27 10:45:38;;;;;;;15.63;3.28;;;21.10;47.50;;;;;;604505;238;26583;-68
2022/07/27 10:48:05;;;;;;;4.82;2.12;;;21.10;47.90;;;;;;602066;238;26596;-68
2022/07/27 10:50:32;;;;;;;5.22;2.30;;;21.30;48.00;;;;;;604663;238;26781;-67
2022/07/27 10:53:02;;;;;;;10.60;2.60;;;21.60;47.50;;;;;;603520;236;26632;-68
2022/07/27 10:55:45;;;;;;;5.37;1.90;;;21.50;47.30;;;;;;601640;239;26807;-68
2022/07/27 10:58:43;;;;;;;3.70;1.55;;;21.30;47.00;;;;;;610840;235;26863;-68
2022/07/27 11:01:12;;;;;;;4.87;1.70;;;21.30;47.50;;;;;;605993;235;26587;-69
2022/07/27 11:03:38;;;;;;;3.50;2.12;;;21.10;47.50;;;;;;604482;237;26864;-69
2022/07/27 11:06:06;;;;;;;6.53;2.17;;;20.80;47.40;;;;;;605496;237;26559;-69
2022/07/27 11:08:34;;;;;;;5.37;1.67;;;20.80;47.30;;;;;;602825;237;26603;-68
2022/07/27 11:11:01;;;;;;;6.97;2.42;;;20.70;47.60;;;;;;606030;235;26611;-68
2022/07/27 11:13:29;;;;;;;9.30;2.20;;;20.50;47.80;;;;;;607834;235;26824;-68
2022/07/27 11:15:56;;;;;;;1.80;1.25;;;20.60;48.00;;;;;;603492;235;26831;-68
2022/07/27 11:18:27;;;;;;;2.20;1.40;;;20.70;48.20;;;;;;609365;235;26578;-69
2022/07/27 11:21:06;;;;;;;1.77;1.12;;;21.00;48.10;;;;;;603031;238;26585;-68
2022/07/27 11:23:33;;;;;;;2.70;1.12;;;20.80;47.80;;;;;;602977;238;26836;-68
2022/07/27 11:26:01;;;;;;;2.05;1.02;;;20.60;47.80;;;;;;604412;237;26587;-68
2022/07/27 11:28:28;;;;;;;2.87;1.12;;;21.10;47.30;;;;;;602521;237;27255;-67
2022/07/27 11:30:56;;;;;;;2.40;1.02;;;21.60;46.90;;;;;;603934;238;27141;-68
2022/07/27 11:33:23;;;;;;;4.50;1.40;;;21.90;46.80;;;;;;601948;232;26610;-68
2022/07/27 11:35:53;;;;;;;1.98;0.88;;;21.50;45.80;;;;;;604135;237;26852;-68
2022/07/27 11:38:21;;;;;;;3.53;0.90;;;20.70;47.00;;;;;;608833;236;27321;-68
2022/07/27 11:40:49;;;;;;;1.58;1.00;;;20.70;47.00;;;;;;604300;236;26842;-68
2022/07/27 11:43:27;;;;;;;3.20;1.20;;;20.70;47.60;;;;;;605801;236;26605;-68
2022/07/27 11:45:54;;;;;;;2.75;0.77;;;20.90;47.80;;;;;;608088;236;26830;-69
2022/07/27 11:48:22;;;;;;;2.67;1.10;;;21.10;47.40;;;;;;602364;236;26581;-68
2022/07/27 11:50:56;;;;;;;2.33;1.00;;;21.00;46.90;;;;;;603704;238;26590;-68
2022/07/27 11:53:23;;;;;;;2.70;1.20;;;21.20;46.90;;;;;;603293;238;26953;-69
2022/07/27 11:55:50;;;;;;;2.50;1.27;;;21.50;46.90;;;;;;602448;232;26574;-68
2022/07/27 11:58:17;;;;;;;1.80;0.82;;;21.60;46.80;;;;;;601565;238;26840;-69
2022/07/27 12:00:45;;;;;;;3.33;1.05;;;21.50;46.30;;;;;;602504;237;26597;-70
2022/07/27 12:03:18;;;;;;;2.40;1.10;;;21.30;46.00;;;;;;603261;238;26884;-70
2022/07/27 12:05:50;;;;;;;1.23;0.82;;;21.30;45.90;;;;;;603837;238;27250;-70
2022/07/27 12:08:17;;;;;;;2.03;1.00;;;21.40;45.40;;;;;;608347;236;26643;-70
2022/07/27 12:10:56;;;;;;;2.72;0.98;;;21.80;45.30;;;;;;604686;237;26571;-70
2022/07/27 12:13:23;;;;;;;2.95;1.02;;;21.80;45.10;;;;;;603668;237;26603;-70
2022/07/27 12:15:55;;;;;;;2.30;0.77;;;22.20;44.30;;;;;;604197;237;26846;-70
2022/07/27 12:18:22;;;;;;;2.12;0.90;;;22.60;43.60;;;;;;603183;237;26655;-70
2022/07/27 12:20:50;;;;;;;1.23;0.88;;;22.10;44.20;;;;;;605567;237;26949;-70
2022/07/27 12:23:16;;;;;;;3.55;1.08;;;22.20;44.60;;;;;;607943;235;26647;-70
2022/07/27 12:25:44;;;;;;;1.83;1.10;;;22.30;44.10;;;;;;604780;235;26911;-70
2022/07/27 12:28:12;;;;;;;2.78;1.02;;;22.20;43.90;;;;;;604940;237;26585;-70
2022/07/27 12:30:40;;;;;;;1.27;0.80;;;22.20;44.20;;;;;;605254;238;26796;-70
2022/07/27 12:33:07;;;;;;;1.48;0.80;;;22.70;43.70;;;;;;603866;238;26602;-70
2022/07/27 12:35:45;;;;;;;2.55;1.10;;;22.90;43.60;;;;;;602191;238;26789;-70
2022/07/27 12:38:10;;;;;;;1.42;0.80;;;22.80;43.20;;;;;;602579;238;26561;-70
2022/07/27 12:40:44;;;;;;;1.23;1.00;;;21.80;43.80;;;;;;602619;238;26588;-70
2022/07/27 12:43:11;;;;;;;2.30;1.45;;;21.80;43.80;;;;;;607346;236;26608;-70
2022/07/27 12:45:38;;;;;;;1.45;0.80;;;21.50;44.40;;;;;;604587;236;26581;-70
2022/07/27 12:48:08;;;;;;;2.67;1.05;;;21.60;44.70;;;;;;604416;238;26823;-71
2022/07/27 12:50:35;;;;;;;1.65;1.00;;;21.70;44.50;;;;;;602278;238;26606;-70
2022/07/27 12:53:02;;;;;;;1.25;0.93;;;22.20;44.00;;;;;;603468;238;26894;-70